createdAt,value
2018-07-13T00:02:17.571Z,17.00
2018-07-13T00:07:22.351Z,16.80
2018-07-13T00:12:27.326Z,16.70
2018-07-13T00:17:32.663Z,16.60
2018-07-13T00:22:37.418Z,16.60
2018-07-13T00:27:42.181Z,16.60
2018-07-13T00:32:47.088Z,16.40
2018-07-13T00:37:51.877Z,16.40
2018-07-13T00:42:56.420Z,16.20
2018-07-13T00:48:01.318Z,16.10
2018-07-13T00:53:06.285Z,16.00
2018-07-13T00:58:11.201Z,15.90
2018-07-13T01:03:15.937Z,16.00
2018-07-13T01:08:20.499Z,16.10
2018-07-13T01:13:25.226Z,16.20
2018-07-13T01:18:29.987Z,16.00
2018-07-13T01:23:34.691Z,15.80
2018-07-13T01:28:39.651Z,15.70
2018-07-13T01:33:44.378Z,15.60
2018-07-13T01:38:48.919Z,15.50
2018-07-13T01:43:53.759Z,15.50
2018-07-13T01:48:58.345Z,15.50
2018-07-13T01:54:03.122Z,15.50
2018-07-13T01:59:07.890Z,15.50
2018-07-13T02:04:12.685Z,15.30
2018-07-13T02:09:17.441Z,15.30
2018-07-13T02:14:22.084Z,15.20
2018-07-13T02:19:26.970Z,15.10
2018-07-13T02:24:31.785Z,15.10
2018-07-13T02:29:36.527Z,14.90
2018-07-13T02:34:41.476Z,14.70
2018-07-13T02:39:46.330Z,14.70
2018-07-13T02:49:55.212Z,14.80
2018-07-13T02:54:59.926Z,14.80
2018-07-13T03:00:04.904Z,14.80
2018-07-13T03:05:09.622Z,14.60
2018-07-13T03:10:14.346Z,14.50
2018-07-13T03:15:19.462Z,14.60
2018-07-13T03:20:24.969Z,14.50
2018-07-13T03:25:29.682Z,14.40
2018-07-13T03:30:34.359Z,14.40
2018-07-13T03:35:39.062Z,14.40
2018-07-13T03:40:43.828Z,14.50
2018-07-13T03:45:48.640Z,14.60
2018-07-13T03:50:53.490Z,14.80
2018-07-13T03:55:58.289Z,14.80
2018-07-13T04:01:03.099Z,14.90
2018-07-13T04:06:07.855Z,15.00
2018-07-13T04:11:12.611Z,15.10
2018-07-13T04:16:17.625Z,15.00
2018-07-13T04:21:22.903Z,15.10
2018-07-13T04:26:27.723Z,15.10
2018-07-13T04:31:32.476Z,15.20
2018-07-13T04:36:37.245Z,15.20
2018-07-13T04:41:42.603Z,15.20
2018-07-13T04:46:48.482Z,15.40
2018-07-13T04:51:53.476Z,15.60
2018-07-13T04:56:58.412Z,15.80
2018-07-13T05:02:03.299Z,16.00
2018-07-13T05:07:08.424Z,16.30
2018-07-13T05:12:13.263Z,16.60
2018-07-13T05:17:18.301Z,16.80
2018-07-13T05:22:23.023Z,17.00
2018-07-13T05:27:28.180Z,17.20
2018-07-13T05:32:33.065Z,17.40
2018-07-13T05:37:37.884Z,17.50
2018-07-13T05:42:42.817Z,17.70
2018-07-13T05:47:47.674Z,17.90
2018-07-13T05:52:52.664Z,18.00
2018-07-13T05:57:57.496Z,18.20
2018-07-13T06:03:02.514Z,18.40
2018-07-13T06:08:07.374Z,18.50
2018-07-13T06:13:13.155Z,18.70
2018-07-13T06:18:17.979Z,18.80
2018-07-13T06:23:22.729Z,19.00
2018-07-13T06:28:27.457Z,19.10
2018-07-13T06:33:32.500Z,19.20
2018-07-13T06:38:37.336Z,19.30
2018-07-13T06:43:41.983Z,19.30
2018-07-13T06:48:46.839Z,19.30
2018-07-13T06:53:52.376Z,19.50
2018-07-13T06:59:05.043Z,19.50
2018-07-13T07:04:29.322Z,19.50
2018-07-13T07:09:33.967Z,19.60
2018-07-13T07:14:38.895Z,19.60
2018-07-13T07:24:48.545Z,19.90
2018-07-13T07:29:53.315Z,20.20
2018-07-13T07:34:57.827Z,20.30
2018-07-13T07:40:02.887Z,20.40
2018-07-13T07:45:07.731Z,20.60
2018-07-13T07:50:12.490Z,20.80
2018-07-13T07:55:17.523Z,20.80
2018-07-13T08:00:22.354Z,20.90
2018-07-13T08:05:27.315Z,21.00
2018-07-13T08:10:32.181Z,21.10
2018-07-13T08:15:36.915Z,21.00
2018-07-13T08:20:46.697Z,21.20
2018-07-13T08:25:51.944Z,21.20
2018-07-13T08:30:59.661Z,21.10
2018-07-13T08:36:04.683Z,21.10
2018-07-13T08:41:09.906Z,21.30
2018-07-13T08:46:14.601Z,21.70
2018-07-13T08:51:19.866Z,21.90
2018-07-13T08:56:24.839Z,22.10
2018-07-13T09:01:29.696Z,22.30
2018-07-13T09:11:38.551Z,22.80
2018-07-13T09:16:43.490Z,22.60
2018-07-13T09:21:48.256Z,23.20
2018-07-13T09:26:53.092Z,23.50
2018-07-13T09:31:58.529Z,23.40
2018-07-13T09:37:03.962Z,23.70
2018-07-13T09:42:09.206Z,23.10
2018-07-13T09:47:14.620Z,22.80
2018-07-13T09:52:19.215Z,23.10
2018-07-13T09:57:24.579Z,23.20
2018-07-13T10:02:29.380Z,23.60
2018-07-13T10:07:35.008Z,24.20
2018-07-13T10:12:39.911Z,24.20
2018-07-13T10:17:44.984Z,24.00
2018-07-13T10:22:49.940Z,24.40
2018-07-13T10:27:55.379Z,24.20
2018-07-13T10:33:00.703Z,24.90
2018-07-13T10:38:05.782Z,25.40
2018-07-13T10:43:11.287Z,24.90
2018-07-13T10:48:16.883Z,25.50
2018-07-13T10:53:21.539Z,26.30
2018-07-13T10:58:26.238Z,26.20
2018-07-13T11:03:30.830Z,26.10
2018-07-13T11:08:35.862Z,26.20
2018-07-13T11:13:40.771Z,26.00
2018-07-13T11:18:46.037Z,26.40
2018-07-13T11:23:51.526Z,26.00
2018-07-13T11:28:56.427Z,25.80
2018-07-13T11:34:01.297Z,26.10
2018-07-13T11:39:07.681Z,25.90
2018-07-13T11:44:12.984Z,26.20
2018-07-13T11:49:17.984Z,27.00
2018-07-13T11:54:22.856Z,27.60
2018-07-13T11:59:27.911Z,28.60
2018-07-13T12:04:32.617Z,29.60
2018-07-13T12:09:36.942Z,29.60
2018-07-13T12:14:41.776Z,30.00
2018-07-13T12:19:46.822Z,30.60
2018-07-13T12:24:52.465Z,31.40
2018-07-13T12:29:57.188Z,32.00
2018-07-13T12:35:01.828Z,32.60
2018-07-13T12:40:06.569Z,33.10
2018-07-13T12:45:11.253Z,33.30
2018-07-13T12:50:17.733Z,32.30
2018-07-13T12:55:23.203Z,33.00
2018-07-13T13:00:28.160Z,33.40
2018-07-13T13:05:32.892Z,34.90
2018-07-13T13:10:37.893Z,33.60
2018-07-13T13:15:42.648Z,34.10
2018-07-13T13:20:48.194Z,35.30
2018-07-13T13:25:52.984Z,35.90
2018-07-13T13:30:57.742Z,37.30
2018-07-13T13:36:02.849Z,36.00
2018-07-13T13:41:07.473Z,34.70
2018-07-13T13:46:12.017Z,36.00
2018-07-13T13:51:17.807Z,37.10
2018-07-13T13:56:22.735Z,36.20
2018-07-13T14:01:27.361Z,36.90
2018-07-13T14:06:32.201Z,36.10
2018-07-13T14:11:36.733Z,36.80
2018-07-13T14:21:45.605Z,35.20
2018-07-13T14:26:51.394Z,34.70
2018-07-13T14:31:56.300Z,34.90
2018-07-13T14:37:01.254Z,34.90
2018-07-13T14:42:05.959Z,36.50
2018-07-13T14:47:11.074Z,37.00
2018-07-13T14:52:16.276Z,37.40
2018-07-13T14:57:21.337Z,35.80
2018-07-13T15:02:26.156Z,36.00
2018-07-13T15:07:31.083Z,35.80
2018-07-13T15:12:36.032Z,36.70
2018-07-13T15:17:40.768Z,38.00
2018-07-13T15:22:45.625Z,38.80
2018-07-13T15:27:50.305Z,38.90
2018-07-13T15:32:55.249Z,36.20
2018-07-13T15:38:00.326Z,36.00
2018-07-13T15:43:04.940Z,35.20
2018-07-13T15:48:10.010Z,35.80
2018-07-13T15:53:15.331Z,35.20
2018-07-13T15:58:20.255Z,34.20
2018-07-13T16:03:25.421Z,34.20
2018-07-13T16:08:30.199Z,35.70
2018-07-13T16:13:35.189Z,37.30
2018-07-13T16:18:40.958Z,35.70
2018-07-13T16:23:46.853Z,34.90
2018-07-13T16:28:51.699Z,35.00
2018-07-13T16:33:57.559Z,34.30
2018-07-13T16:39:02.401Z,35.30
2018-07-13T16:44:07.002Z,35.90
2018-07-13T16:49:11.948Z,36.10
2018-07-13T16:54:17.017Z,34.70
2018-07-13T16:59:21.755Z,31.40
2018-07-13T17:04:27.115Z,29.90
2018-07-13T17:09:32.223Z,28.70
2018-07-13T17:14:37.016Z,28.40
2018-07-13T17:19:41.855Z,28.20
2018-07-13T17:24:46.884Z,28.00
2018-07-13T17:29:51.897Z,27.80
2018-07-13T17:40:01.280Z,27.20
2018-07-13T17:45:06.346Z,27.10
2018-07-13T17:50:11.135Z,27.00
2018-07-13T17:55:16.381Z,27.00
2018-07-13T18:00:21.464Z,26.90
2018-07-13T18:05:26.303Z,26.80
2018-07-13T18:10:31.064Z,26.60
2018-07-13T18:15:36.239Z,26.40
2018-07-13T18:20:41.984Z,26.30
2018-07-13T18:25:47.483Z,26.10
2018-07-13T18:30:52.364Z,26.10
2018-07-13T18:35:57.214Z,25.80
2018-07-13T18:41:01.908Z,25.60
2018-07-13T18:46:06.875Z,25.40
2018-07-13T18:51:11.731Z,25.30
2018-07-13T18:56:17.711Z,24.80
2018-07-13T19:01:22.509Z,24.30
2018-07-13T19:06:27.865Z,24.00
2018-07-13T19:11:34.060Z,23.60
2018-07-13T19:16:38.761Z,23.50
2018-07-13T19:21:43.547Z,23.40
2018-07-13T19:26:48.417Z,23.30
2018-07-13T19:31:53.503Z,23.20
2018-07-13T19:36:58.728Z,23.00
2018-07-13T19:42:03.831Z,22.50
2018-07-13T19:47:08.639Z,22.40
2018-07-13T19:52:13.494Z,22.30
2018-07-13T19:57:18.492Z,22.10
2018-07-13T20:02:23.229Z,21.80
2018-07-13T20:07:30.566Z,21.80
2018-07-13T20:12:35.057Z,21.70
2018-07-13T20:17:44.531Z,21.40
2018-07-13T20:22:49.610Z,21.40
2018-07-13T20:27:54.569Z,21.50
2018-07-13T20:32:59.476Z,21.50
2018-07-13T20:38:04.629Z,21.40
2018-07-13T20:43:09.745Z,21.30
2018-07-13T20:48:15.741Z,21.30
2018-07-13T20:53:20.785Z,21.30
2018-07-13T20:58:25.855Z,21.20
2018-07-13T21:03:30.835Z,21.00
2018-07-13T21:08:35.413Z,20.80
2018-07-13T21:13:40.690Z,20.60
2018-07-13T21:18:45.861Z,20.30
2018-07-13T21:23:50.408Z,20.20
2018-07-13T21:28:54.942Z,20.00
2018-07-13T21:33:59.720Z,19.80
2018-07-13T21:39:05.457Z,19.70
2018-07-13T21:44:10.426Z,19.60
2018-07-13T21:49:15.326Z,19.50
2018-07-13T21:54:20.151Z,19.50
2018-07-13T21:59:24.778Z,19.60
2018-07-13T22:04:29.496Z,19.40
2018-07-13T22:09:34.261Z,19.30
2018-07-13T22:14:39.594Z,19.30
2018-07-13T22:19:44.297Z,19.30
2018-07-13T22:24:49.040Z,19.20
2018-07-13T22:29:54.152Z,19.20
2018-07-13T22:34:58.725Z,19.30
2018-07-13T22:40:03.472Z,19.30
2018-07-13T22:45:08.096Z,19.20
2018-07-13T22:50:12.978Z,19.40
2018-07-13T22:55:17.589Z,19.50
2018-07-13T23:00:22.404Z,19.40
2018-07-13T23:05:32.709Z,19.30
2018-07-13T23:10:37.733Z,19.30
2018-07-13T23:15:42.340Z,19.20
2018-07-13T23:20:47.285Z,19.10
2018-07-13T23:25:51.845Z,19.10
2018-07-13T23:30:56.764Z,19.10
2018-07-13T23:36:01.591Z,18.80
2018-07-13T23:41:06.340Z,18.70
2018-07-13T23:46:11.088Z,18.90
2018-07-13T23:51:15.812Z,19.10
2018-07-13T23:56:20.628Z,19.30
